sensor_id;sensor_type;location;lat;lon;timestamp;P1;durP1;ratioP1;P2;durP2;ratioP2
56005;SDS011;41888;44.696;10.522;2023-08-07T00:01:01;1.35;;;0.60;;
56005;SDS011;41888;44.696;10.522;2023-08-07T00:03:27;1.25;;;0.60;;
56005;SDS011;41888;44.696;10.522;2023-08-07T00:05:53;3.95;;;1.00;;
56005;SDS011;41888;44.696;10.522;2023-08-07T00:08:20;2.90;;;0.88;;
56005;SDS011;41888;44.696;10.522;2023-08-07T00:10:46;2.50;;;0.93;;
56005;SDS011;41888;44.696;10.522;2023-08-07T00:13:13;1.98;;;0.77;;
56005;SDS011;41888;44.696;10.522;2023-08-07T00:15:39;1.80;;;0.90;;
56005;SDS011;41888;44.696;10.522;2023-08-07T00:18:05;4.30;;;0.98;;
56005;SDS011;41888;44.696;10.522;2023-08-07T00:20:32;1.80;;;0.82;;
56005;SDS011;41888;44.696;10.522;2023-08-07T00:22:58;2.17;;;0.63;;
56005;SDS011;41888;44.696;10.522;2023-08-07T00:25:24;1.63;;;0.90;;
56005;SDS011;41888;44.696;10.522;2023-08-07T00:27:50;4.43;;;1.42;;
56005;SDS011;41888;44.696;10.522;2023-08-07T00:30:16;2.53;;;0.80;;
56005;SDS011;41888;44.696;10.522;2023-08-07T00:32:43;1.85;;;0.60;;
56005;SDS011;41888;44.696;10.522;2023-08-07T00:35:09;3.88;;;0.80;;
56005;SDS011;41888;44.696;10.522;2023-08-07T00:37:35;2.55;;;0.85;;
56005;SDS011;41888;44.696;10.522;2023-08-07T00:40:01;4.82;;;0.80;;
56005;SDS011;41888;44.696;10.522;2023-08-07T00:42:28;1.73;;;0.68;;
56005;SDS011;41888;44.696;10.522;2023-08-07T00:44:54;2.78;;;0.77;;
56005;SDS011;41888;44.696;10.522;2023-08-07T00:47:20;2.05;;;0.93;;
56005;SDS011;41888;44.696;10.522;2023-08-07T00:49:47;4.75;;;1.02;;
56005;SDS011;41888;44.696;10.522;2023-08-07T00:52:14;1.95;;;0.80;;
56005;SDS011;41888;44.696;10.522;2023-08-07T00:54:40;2.38;;;1.00;;
56005;SDS011;41888;44.696;10.522;2023-08-07T00:57:10;3.10;;;0.88;;
56005;SDS011;41888;44.696;10.522;2023-08-07T00:59:40;2.90;;;1.00;;
56005;SDS011;41888;44.696;10.522;2023-08-07T01:02:07;1.80;;;0.98;;
56005;SDS011;41888;44.696;10.522;2023-08-07T01:04:34;4.32;;;1.30;;
56005;SDS011;41888;44.696;10.522;2023-08-07T01:07:00;2.00;;;1.30;;
56005;SDS011;41888;44.696;10.522;2023-08-07T01:09:26;5.80;;;1.00;;
56005;SDS011;41888;44.696;10.522;2023-08-07T01:12:06;2.13;;;0.90;;
56005;SDS011;41888;44.696;10.522;2023-08-07T01:14:40;4.13;;;1.25;;
56005;SDS011;41888;44.696;10.522;2023-08-07T01:17:09;2.67;;;1.42;;
56005;SDS011;41888;44.696;10.522;2023-08-07T01:19:39;1.95;;;1.30;;
56005;SDS011;41888;44.696;10.522;2023-08-07T01:22:13;6.53;;;1.48;;
56005;SDS011;41888;44.696;10.522;2023-08-07T01:24:42;9.18;;;1.60;;
56005;SDS011;41888;44.696;10.522;2023-08-07T01:35:17;7.75;;;2.33;;
56005;SDS011;41888;44.696;10.522;2023-08-07T01:37:50;3.05;;;1.77;;
56005;SDS011;41888;44.696;10.522;2023-08-07T01:40:19;5.03;;;2.00;;
56005;SDS011;41888;44.696;10.522;2023-08-07T01:42:46;4.88;;;2.35;;
56005;SDS011;41888;44.696;10.522;2023-08-07T01:45:13;4.50;;;1.95;;
56005;SDS011;41888;44.696;10.522;2023-08-07T01:47:46;7.72;;;2.70;;
56005;SDS011;41888;44.696;10.522;2023-08-07T01:50:12;4.25;;;2.10;;
56005;SDS011;41888;44.696;10.522;2023-08-07T01:52:41;4.63;;;2.38;;
56005;SDS011;41888;44.696;10.522;2023-08-07T01:55:07;3.70;;;2.00;;
56005;SDS011;41888;44.696;10.522;2023-08-07T01:57:34;10.77;;;3.60;;
56005;SDS011;41888;44.696;10.522;2023-08-07T02:00:00;3.50;;;1.75;;
56005;SDS011;41888;44.696;10.522;2023-08-07T02:02:31;7.22;;;2.30;;
56005;SDS011;41888;44.696;10.522;2023-08-07T02:04:57;6.18;;;2.22;;
56005;SDS011;41888;44.696;10.522;2023-08-07T02:07:26;5.78;;;2.10;;
56005;SDS011;41888;44.696;10.522;2023-08-07T02:09:52;7.90;;;1.95;;
56005;SDS011;41888;44.696;10.522;2023-08-07T02:12:19;6.68;;;2.03;;
56005;SDS011;41888;44.696;10.522;2023-08-07T02:14:50;3.70;;;1.20;;
56005;SDS011;41888;44.696;10.522;2023-08-07T02:17:16;7.78;;;1.00;;
56005;SDS011;41888;44.696;10.522;2023-08-07T02:19:45;3.13;;;1.13;;
56005;SDS011;41888;44.696;10.522;2023-08-07T02:22:12;9.50;;;1.38;;
56005;SDS011;41888;44.696;10.522;2023-08-07T02:24:40;1.67;;;1.10;;
56005;SDS011;41888;44.696;10.522;2023-08-07T02:27:06;3.15;;;1.05;;
56005;SDS011;41888;44.696;10.522;2023-08-07T02:29:36;3.45;;;1.45;;
56005;SDS011;41888;44.696;10.522;2023-08-07T02:32:02;3.30;;;1.00;;
56005;SDS011;41888;44.696;10.522;2023-08-07T02:34:29;2.33;;;0.88;;
56005;SDS011;41888;44.696;10.522;2023-08-07T02:36:56;2.88;;;0.80;;
56005;SDS011;41888;44.696;10.522;2023-08-07T02:39:22;3.05;;;1.02;;
56005;SDS011;41888;44.696;10.522;2023-08-07T02:41:49;3.85;;;1.05;;
56005;SDS011;41888;44.696;10.522;2023-08-07T02:44:15;2.08;;;0.80;;
56005;SDS011;41888;44.696;10.522;2023-08-07T02:46:42;2.33;;;0.80;;
56005;SDS011;41888;44.696;10.522;2023-08-07T02:49:09;1.45;;;0.80;;
56005;SDS011;41888;44.696;10.522;2023-08-07T02:51:35;0.90;;;0.68;;
56005;SDS011;41888;44.696;10.522;2023-08-07T02:54:01;1.17;;;0.50;;
56005;SDS011;41888;44.696;10.522;2023-08-07T02:56:27;0.90;;;0.60;;
56005;SDS011;41888;44.696;10.522;2023-08-07T02:58:53;2.05;;;0.82;;
56005;SDS011;41888;44.696;10.522;2023-08-07T03:01:23;1.50;;;0.80;;
56005;SDS011;41888;44.696;10.522;2023-08-07T03:03:49;3.33;;;0.55;;
56005;SDS011;41888;44.696;10.522;2023-08-07T03:06:15;1.67;;;0.50;;
56005;SDS011;41888;44.696;10.522;2023-08-07T03:08:41;1.92;;;0.50;;
56005;SDS011;41888;44.696;10.522;2023-08-07T03:11:08;0.77;;;0.50;;
56005;SDS011;41888;44.696;10.522;2023-08-07T03:14:03;4.68;;;0.90;;
56005;SDS011;41888;44.696;10.522;2023-08-07T03:16:29;2.00;;;0.75;;
56005;SDS011;41888;44.696;10.522;2023-08-07T03:18:56;1.00;;;0.60;;
56005;SDS011;41888;44.696;10.522;2023-08-07T03:21:22;1.35;;;0.68;;
56005;SDS011;41888;44.696;10.522;2023-08-07T03:23:48;2.22;;;0.70;;
56005;SDS011;41888;44.696;10.522;2023-08-07T03:26:15;1.30;;;0.68;;
56005;SDS011;41888;44.696;10.522;2023-08-07T03:28:41;5.13;;;1.17;;
56005;SDS011;41888;44.696;10.522;2023-08-07T03:31:10;6.80;;;1.08;;
56005;SDS011;41888;44.696;10.522;2023-08-07T03:33:36;1.20;;;0.55;;
56005;SDS011;41888;44.696;10.522;2023-08-07T03:36:02;1.70;;;0.65;;
56005;SDS011;41888;44.696;10.522;2023-08-07T03:38:29;1.60;;;0.63;;
56005;SDS011;41888;44.696;10.522;2023-08-07T03:40:55;1.63;;;0.70;;
56005;SDS011;41888;44.696;10.522;2023-08-07T03:43:21;1.73;;;0.50;;
56005;SDS011;41888;44.696;10.522;2023-08-07T03:45:47;2.25;;;0.63;;
56005;SDS011;41888;44.696;10.522;2023-08-07T03:48:22;0.88;;;0.60;;
56005;SDS011;41888;44.696;10.522;2023-08-07T03:50:49;0.90;;;0.40;;
56005;SDS011;41888;44.696;10.522;2023-08-07T03:53:15;2.60;;;0.80;;
56005;SDS011;41888;44.696;10.522;2023-08-07T03:55:41;1.08;;;0.55;;
56005;SDS011;41888;44.696;10.522;2023-08-07T03:58:08;1.55;;;0.85;;
56005;SDS011;41888;44.696;10.522;2023-08-07T04:00:34;2.92;;;0.60;;
56005;SDS011;41888;44.696;10.522;2023-08-07T04:03:00;1.45;;;0.43;;
56005;SDS011;41888;44.696;10.522;2023-08-07T04:05:26;1.73;;;0.68;;
56005;SDS011;41888;44.696;10.522;2023-08-07T04:07:52;3.70;;;0.50;;
56005;SDS011;41888;44.696;10.522;2023-08-07T04:10:18;3.08;;;1.02;;
56005;SDS011;41888;44.696;10.522;2023-08-07T04:12:45;3.15;;;0.70;;
56005;SDS011;41888;44.696;10.522;2023-08-07T04:15:11;0.95;;;0.57;;
56005;SDS011;41888;44.696;10.522;2023-08-07T04:17:37;3.30;;;0.60;;
56005;SDS011;41888;44.696;10.522;2023-08-07T04:20:03;1.95;;;0.50;;
56005;SDS011;41888;44.696;10.522;2023-08-07T04:22:30;1.33;;;0.80;;
56005;SDS011;41888;44.696;10.522;2023-08-07T04:24:56;2.55;;;0.90;;
56005;SDS011;41888;44.696;10.522;2023-08-07T04:27:22;0.77;;;0.43;;
56005;SDS011;41888;44.696;10.522;2023-08-07T04:29:49;3.33;;;0.60;;
56005;SDS011;41888;44.696;10.522;2023-08-07T04:32:15;1.35;;;0.52;;
56005;SDS011;41888;44.696;10.522;2023-08-07T04:34:41;1.42;;;0.60;;
56005;SDS011;41888;44.696;10.522;2023-08-07T04:37:07;1.77;;;0.60;;
56005;SDS011;41888;44.696;10.522;2023-08-07T04:39:33;2.70;;;0.73;;
56005;SDS011;41888;44.696;10.522;2023-08-07T04:42:00;0.88;;;0.40;;
56005;SDS011;41888;44.696;10.522;2023-08-07T04:44:27;0.55;;;0.30;;
56005;SDS011;41888;44.696;10.522;2023-08-07T04:46:53;1.55;;;0.60;;
56005;SDS011;41888;44.696;10.522;2023-08-07T04:49:19;2.80;;;0.65;;
56005;SDS011;41888;44.696;10.522;2023-08-07T04:51:45;0.82;;;0.40;;
56005;SDS011;41888;44.696;10.522;2023-08-07T04:54:12;1.23;;;0.50;;
56005;SDS011;41888;44.696;10.522;2023-08-07T04:56:38;1.35;;;0.45;;
56005;SDS011;41888;44.696;10.522;2023-08-07T04:59:05;5.13;;;0.65;;
56005;SDS011;41888;44.696;10.522;2023-08-07T05:01:31;0.80;;;0.40;;
56005;SDS011;41888;44.696;10.522;2023-08-07T05:03:58;1.42;;;0.50;;
56005;SDS011;41888;44.696;10.522;2023-08-07T05:06:24;1.25;;;0.70;;
56005;SDS011;41888;44.696;10.522;2023-08-07T05:08:50;0.93;;;0.30;;
56005;SDS011;41888;44.696;10.522;2023-08-07T05:11:16;0.93;;;0.30;;
56005;SDS011;41888;44.696;10.522;2023-08-07T05:13:42;0.75;;;0.40;;
56005;SDS011;41888;44.696;10.522;2023-08-07T05:16:09;1.25;;;0.52;;
56005;SDS011;41888;44.696;10.522;2023-08-07T05:18:35;1.42;;;0.45;;
56005;SDS011;41888;44.696;10.522;2023-08-07T05:21:01;0.80;;;0.28;;
56005;SDS011;41888;44.696;10.522;2023-08-07T05:23:27;0.30;;;0.20;;
56005;SDS011;41888;44.696;10.522;2023-08-07T05:25:54;0.45;;;0.30;;
56005;SDS011;41888;44.696;10.522;2023-08-07T05:28:20;1.30;;;0.30;;
56005;SDS011;41888;44.696;10.522;2023-08-07T05:30:46;0.80;;;0.38;;
56005;SDS011;41888;44.696;10.522;2023-08-07T05:33:13;1.00;;;0.30;;
56005;SDS011;41888;44.696;10.522;2023-08-07T05:35:40;1.45;;;0.40;;
56005;SDS011;41888;44.696;10.522;2023-08-07T05:38:07;0.47;;;0.20;;
56005;SDS011;41888;44.696;10.522;2023-08-07T05:40:33;1.55;;;0.17;;
56005;SDS011;41888;44.696;10.522;2023-08-07T05:43:01;1.67;;;0.30;;
56005;SDS011;41888;44.696;10.522;2023-08-07T05:45:28;0.20;;;0.20;;
56005;SDS011;41888;44.696;10.522;2023-08-07T05:47:54;0.30;;;0.20;;
56005;SDS011;41888;44.696;10.522;2023-08-07T05:50:20;0.38;;;0.20;;
56005;SDS011;41888;44.696;10.522;2023-08-07T05:52:46;0.30;;;0.15;;
56005;SDS011;41888;44.696;10.522;2023-08-07T05:55:12;0.68;;;0.30;;
56005;SDS011;41888;44.696;10.522;2023-08-07T05:57:38;0.85;;;0.28;;
56005;SDS011;41888;44.696;10.522;2023-08-07T06:00:05;0.80;;;0.20;;
56005;SDS011;41888;44.696;10.522;2023-08-07T06:02:32;0.63;;;0.20;;
56005;SDS011;41888;44.696;10.522;2023-08-07T06:04:59;0.55;;;0.30;;
56005;SDS011;41888;44.696;10.522;2023-08-07T06:07:25;0.47;;;0.20;;
56005;SDS011;41888;44.696;10.522;2023-08-07T06:09:51;0.35;;;0.20;;
56005;SDS011;41888;44.696;10.522;2023-08-07T06:12:17;0.50;;;0.20;;
56005;SDS011;41888;44.696;10.522;2023-08-07T06:14:43;0.65;;;0.30;;
56005;SDS011;41888;44.696;10.522;2023-08-07T06:17:09;3.22;;;0.30;;
56005;SDS011;41888;44.696;10.522;2023-08-07T06:19:36;3.10;;;0.35;;
56005;SDS011;41888;44.696;10.522;2023-08-07T06:22:02;1.92;;;0.30;;
56005;SDS011;41888;44.696;10.522;2023-08-07T06:24:28;1.02;;;0.20;;
56005;SDS011;41888;44.696;10.522;2023-08-07T06:26:54;0.28;;;0.20;;
56005;SDS011;41888;44.696;10.522;2023-08-07T06:29:21;1.23;;;0.40;;
56005;SDS011;41888;44.696;10.522;2023-08-07T06:31:47;0.15;;;0.10;;
56005;SDS011;41888;44.696;10.522;2023-08-07T06:34:13;0.82;;;0.22;;
56005;SDS011;41888;44.696;10.522;2023-08-07T06:36:39;2.20;;;0.40;;
56005;SDS011;41888;44.696;10.522;2023-08-07T06:39:05;0.20;;;0.15;;
56005;SDS011;41888;44.696;10.522;2023-08-07T06:41:32;1.83;;;0.35;;
56005;SDS011;41888;44.696;10.522;2023-08-07T06:43:58;0.98;;;0.20;;
56005;SDS011;41888;44.696;10.522;2023-08-07T06:46:24;1.27;;;0.30;;
56005;SDS011;41888;44.696;10.522;2023-08-07T06:48:52;1.15;;;0.40;;
56005;SDS011;41888;44.696;10.522;2023-08-07T06:51:18;0.32;;;0.10;;
56005;SDS011;41888;44.696;10.522;2023-08-07T06:53:45;0.57;;;0.20;;
56005;SDS011;41888;44.696;10.522;2023-08-07T06:56:11;1.00;;;0.35;;
56005;SDS011;41888;44.696;10.522;2023-08-07T06:58:37;0.50;;;0.25;;
56005;SDS011;41888;44.696;10.522;2023-08-07T07:01:03;1.67;;;0.40;;
56005;SDS011;41888;44.696;10.522;2023-08-07T07:03:29;2.30;;;0.60;;
56005;SDS011;41888;44.696;10.522;2023-08-07T07:05:55;0.47;;;0.20;;
56005;SDS011;41888;44.696;10.522;2023-08-07T07:08:22;1.83;;;0.38;;
56005;SDS011;41888;44.696;10.522;2023-08-07T07:10:48;0.43;;;0.30;;
56005;SDS011;41888;44.696;10.522;2023-08-07T07:13:14;0.80;;;0.25;;
56005;SDS011;41888;44.696;10.522;2023-08-07T07:15:40;0.47;;;0.20;;
56005;SDS011;41888;44.696;10.522;2023-08-07T07:18:07;0.22;;;0.15;;
56005;SDS011;41888;44.696;10.522;2023-08-07T07:20:33;0.85;;;0.22;;
56005;SDS011;41888;44.696;10.522;2023-08-07T07:22:59;0.30;;;0.10;;
56005;SDS011;41888;44.696;10.522;2023-08-07T07:25:25;1.80;;;0.20;;
56005;SDS011;41888;44.696;10.522;2023-08-07T07:27:51;0.47;;;0.15;;
56005;SDS011;41888;44.696;10.522;2023-08-07T07:30:18;0.60;;;0.20;;
56005;SDS011;41888;44.696;10.522;2023-08-07T07:32:45;0.40;;;0.20;;
56005;SDS011;41888;44.696;10.522;2023-08-07T07:35:12;0.82;;;0.25;;
56005;SDS011;41888;44.696;10.522;2023-08-07T07:37:38;0.52;;;0.20;;
56005;SDS011;41888;44.696;10.522;2023-08-07T07:40:04;0.95;;;0.20;;
56005;SDS011;41888;44.696;10.522;2023-08-07T07:42:31;1.38;;;0.10;;
56005;SDS011;41888;44.696;10.522;2023-08-07T07:44:57;0.30;;;0.20;;
56005;SDS011;41888;44.696;10.522;2023-08-07T07:47:23;1.08;;;0.20;;
56005;SDS011;41888;44.696;10.522;2023-08-07T07:50:03;0.25;;;0.20;;
56005;SDS011;41888;44.696;10.522;2023-08-07T07:52:33;0.38;;;0.20;;
56005;SDS011;41888;44.696;10.522;2023-08-07T07:55:00;0.40;;;0.10;;
56005;SDS011;41888;44.696;10.522;2023-08-07T07:57:26;0.73;;;0.30;;
56005;SDS011;41888;44.696;10.522;2023-08-07T07:59:52;0.60;;;0.22;;
56005;SDS011;41888;44.696;10.522;2023-08-07T08:02:18;0.30;;;0.10;;
56005;SDS011;41888;44.696;10.522;2023-08-07T08:04:44;3.33;;;0.32;;
56005;SDS011;41888;44.696;10.522;2023-08-07T08:07:11;0.73;;;0.22;;
56005;SDS011;41888;44.696;10.522;2023-08-07T08:09:37;0.30;;;0.10;;
56005;SDS011;41888;44.696;10.522;2023-08-07T08:12:04;0.60;;;0.32;;
56005;SDS011;41888;44.696;10.522;2023-08-07T08:14:30;0.50;;;0.32;;
56005;SDS011;41888;44.696;10.522;2023-08-07T08:16:56;0.40;;;0.20;;
56005;SDS011;41888;44.696;10.522;2023-08-07T08:19:22;0.17;;;0.10;;
56005;SDS011;41888;44.696;10.522;2023-08-07T08:21:49;0.30;;;0.10;;
56005;SDS011;41888;44.696;10.522;2023-08-07T08:24:15;0.20;;;0.10;;
56005;SDS011;41888;44.696;10.522;2023-08-07T08:26:41;0.40;;;0.10;;
56005;SDS011;41888;44.696;10.522;2023-08-07T08:29:07;0.38;;;0.10;;
56005;SDS011;41888;44.696;10.522;2023-08-07T08:31:34;1.13;;;0.20;;
56005;SDS011;41888;44.696;10.522;2023-08-07T08:34:00;0.90;;;0.25;;
56005;SDS011;41888;44.696;10.522;2023-08-07T08:36:26;0.38;;;0.10;;
56005;SDS011;41888;44.696;10.522;2023-08-07T08:38:53;0.50;;;0.10;;
56005;SDS011;41888;44.696;10.522;2023-08-07T08:41:19;0.10;;;0.10;;
56005;SDS011;41888;44.696;10.522;2023-08-07T08:43:46;0.47;;;0.30;;
56005;SDS011;41888;44.696;10.522;2023-08-07T08:46:15;0.40;;;0.20;;
56005;SDS011;41888;44.696;10.522;2023-08-07T08:48:45;0.50;;;0.20;;
56005;SDS011;41888;44.696;10.522;2023-08-07T08:51:15;1.10;;;0.40;;
56005;SDS011;41888;44.696;10.522;2023-08-07T08:53:44;2.80;;;0.28;;
56005;SDS011;41888;44.696;10.522;2023-08-07T08:56:11;0.35;;;0.17;;
56005;SDS011;41888;44.696;10.522;2023-08-07T08:58:38;0.43;;;0.20;;
56005;SDS011;41888;44.696;10.522;2023-08-07T09:01:06;0.35;;;0.20;;
56005;SDS011;41888;44.696;10.522;2023-08-07T09:03:33;0.25;;;0.13;;
56005;SDS011;41888;44.696;10.522;2023-08-07T09:05:59;0.30;;;0.20;;
56005;SDS011;41888;44.696;10.522;2023-08-07T09:08:26;0.50;;;0.20;;
56005;SDS011;41888;44.696;10.522;2023-08-07T09:10:55;1.27;;;0.22;;
56005;SDS011;41888;44.696;10.522;2023-08-07T09:13:22;0.20;;;0.13;;
56005;SDS011;41888;44.696;10.522;2023-08-07T09:15:52;1.13;;;0.32;;
56005;SDS011;41888;44.696;10.522;2023-08-07T09:18:20;0.38;;;0.20;;
56005;SDS011;41888;44.696;10.522;2023-08-07T09:20:47;0.55;;;0.28;;
56005;SDS011;41888;44.696;10.522;2023-08-07T09:23:15;0.52;;;0.40;;
56005;SDS011;41888;44.696;10.522;2023-08-07T09:25:44;0.45;;;0.20;;
56005;SDS011;41888;44.696;10.522;2023-08-07T09:28:10;0.55;;;0.20;;
56005;SDS011;41888;44.696;10.522;2023-08-07T09:30:37;1.23;;;0.28;;
56005;SDS011;41888;44.696;10.522;2023-08-07T09:33:04;0.30;;;0.00;;
56005;SDS011;41888;44.696;10.522;2023-08-07T09:35:31;4.75;;;0.30;;
56005;SDS011;41888;44.696;10.522;2023-08-07T09:37:58;1.08;;;0.10;;
56005;SDS011;41888;44.696;10.522;2023-08-07T09:40:24;1.90;;;0.10;;
56005;SDS011;41888;44.696;10.522;2023-08-07T09:42:51;0.40;;;0.20;;
56005;SDS011;41888;44.696;10.522;2023-08-07T09:45:27;0.38;;;0.20;;
56005;SDS011;41888;44.696;10.522;2023-08-07T09:48:01;1.10;;;0.30;;
56005;SDS011;41888;44.696;10.522;2023-08-07T09:52:56;0.55;;;0.20;;
56005;SDS011;41888;44.696;10.522;2023-08-07T09:55:24;0.45;;;0.20;;
56005;SDS011;41888;44.696;10.522;2023-08-07T09:57:51;0.20;;;0.10;;
56005;SDS011;41888;44.696;10.522;2023-08-07T10:00:19;0.40;;;0.20;;
56005;SDS011;41888;44.696;10.522;2023-08-07T10:02:46;0.88;;;0.43;;
56005;SDS011;41888;44.696;10.522;2023-08-07T10:05:13;0.28;;;0.10;;
56005;SDS011;41888;44.696;10.522;2023-08-07T10:07:40;0.25;;;0.15;;
56005;SDS011;41888;44.696;10.522;2023-08-07T10:10:07;0.00;;;0.00;;
56005;SDS011;41888;44.696;10.522;2023-08-07T10:12:35;0.40;;;0.10;;
56005;SDS011;41888;44.696;10.522;2023-08-07T10:15:03;0.32;;;0.13;;
56005;SDS011;41888;44.696;10.522;2023-08-07T10:17:30;0.50;;;0.30;;
56005;SDS011;41888;44.696;10.522;2023-08-07T10:19:58;0.47;;;0.20;;
56005;SDS011;41888;44.696;10.522;2023-08-07T10:22:25;2.35;;;0.30;;
56005;SDS011;41888;44.696;10.522;2023-08-07T10:24:54;0.85;;;0.30;;
56005;SDS011;41888;44.696;10.522;2023-08-07T10:27:25;1.48;;;0.40;;
56005;SDS011;41888;44.696;10.522;2023-08-07T10:29:54;0.57;;;0.20;;
56005;SDS011;41888;44.696;10.522;2023-08-07T10:32:23;1.75;;;0.20;;
56005;SDS011;41888;44.696;10.522;2023-08-07T10:34:51;0.63;;;0.30;;
56005;SDS011;41888;44.696;10.522;2023-08-07T10:40:08;0.45;;;0.20;;
56005;SDS011;41888;44.696;10.522;2023-08-07T10:45:39;0.75;;;0.20;;
56005;SDS011;41888;44.696;10.522;2023-08-07T10:48:05;0.77;;;0.45;;
56005;SDS011;41888;44.696;10.522;2023-08-07T10:51:19;2.28;;;0.40;;
56005;SDS011;41888;44.696;10.522;2023-08-07T10:53:37;0.60;;;0.20;;
56005;SDS011;41888;44.696;10.522;2023-08-07T10:56:10;2.67;;;0.22;;
56005;SDS011;41888;44.696;10.522;2023-08-07T10:58:40;0.73;;;0.25;;
56005;SDS011;41888;44.696;10.522;2023-08-07T11:01:28;0.60;;;0.17;;
56005;SDS011;41888;44.696;10.522;2023-08-07T11:04:07;0.08;;;0.00;;
56005;SDS011;41888;44.696;10.522;2023-08-07T11:06:36;0.47;;;0.20;;
56005;SDS011;41888;44.696;10.522;2023-08-07T11:09:04;0.40;;;0.20;;
56005;SDS011;41888;44.696;10.522;2023-08-07T11:11:36;5.55;;;0.63;;
56005;SDS011;41888;44.696;10.522;2023-08-07T11:14:11;0.55;;;0.30;;
56005;SDS011;41888;44.696;10.522;2023-08-07T11:16:38;0.70;;;0.30;;
56005;SDS011;41888;44.696;10.522;2023-08-07T11:19:05;0.77;;;0.30;;
56005;SDS011;41888;44.696;10.522;2023-08-07T11:21:32;2.38;;;0.50;;
56005;SDS011;41888;44.696;10.522;2023-08-07T11:23:59;1.20;;;0.28;;
56005;SDS011;41888;44.696;10.522;2023-08-07T11:26:25;0.20;;;0.15;;
56005;SDS011;41888;44.696;10.522;2023-08-07T11:28:53;0.28;;;0.10;;
56005;SDS011;41888;44.696;10.522;2023-08-07T11:31:20;1.77;;;0.22;;
56005;SDS011;41888;44.696;10.522;2023-08-07T11:33:52;0.68;;;0.20;;
56005;SDS011;41888;44.696;10.522;2023-08-07T11:36:27;0.40;;;0.13;;
56005;SDS011;41888;44.696;10.522;2023-08-07T11:38:54;0.70;;;0.20;;
56005;SDS011;41888;44.696;10.522;2023-08-07T11:41:21;1.27;;;0.30;;
56005;SDS011;41888;44.696;10.522;2023-08-07T11:43:47;0.77;;;0.30;;
56005;SDS011;41888;44.696;10.522;2023-08-07T11:46:14;1.45;;;0.30;;
56005;SDS011;41888;44.696;10.522;2023-08-07T11:48:41;1.08;;;0.20;;
56005;SDS011;41888;44.696;10.522;2023-08-07T11:51:08;1.42;;;0.40;;
56005;SDS011;41888;44.696;10.522;2023-08-07T11:53:36;0.50;;;0.20;;
56005;SDS011;41888;44.696;10.522;2023-08-07T11:56:05;0.65;;;0.22;;
56005;SDS011;41888;44.696;10.522;2023-08-07T11:58:38;0.38;;;0.10;;
56005;SDS011;41888;44.696;10.522;2023-08-07T12:01:05;0.52;;;0.20;;
56005;SDS011;41888;44.696;10.522;2023-08-07T12:03:35;0.75;;;0.30;;
56005;SDS011;41888;44.696;10.522;2023-08-07T12:06:04;0.77;;;0.28;;
56005;SDS011;41888;44.696;10.522;2023-08-07T12:08:38;0.55;;;0.22;;
56005;SDS011;41888;44.696;10.522;2023-08-07T12:11:08;0.82;;;0.40;;
56005;SDS011;41888;44.696;10.522;2023-08-07T12:13:38;1.15;;;0.40;;
56005;SDS011;41888;44.696;10.522;2023-08-07T12:16:06;1.55;;;0.40;;
56005;SDS011;41888;44.696;10.522;2023-08-07T12:18:33;0.60;;;0.20;;
56005;SDS011;41888;44.696;10.522;2023-08-07T12:21:04;0.75;;;0.30;;
56005;SDS011;41888;44.696;10.522;2023-08-07T12:23:33;0.73;;;0.30;;
56005;SDS011;41888;44.696;10.522;2023-08-07T12:26:00;0.35;;;0.20;;
56005;SDS011;41888;44.696;10.522;2023-08-07T12:28:27;1.02;;;0.45;;
56005;SDS011;41888;44.696;10.522;2023-08-07T12:30:53;0.82;;;0.22;;
56005;SDS011;41888;44.696;10.522;2023-08-07T12:33:19;1.10;;;0.38;;
56005;SDS011;41888;44.696;10.522;2023-08-07T12:35:46;0.65;;;0.32;;
56005;SDS011;41888;44.696;10.522;2023-08-07T12:38:12;0.57;;;0.28;;
56005;SDS011;41888;44.696;10.522;2023-08-07T12:40:42;0.65;;;0.20;;
56005;SDS011;41888;44.696;10.522;2023-08-07T12:43:08;1.35;;;0.30;;
56005;SDS011;41888;44.696;10.522;2023-08-07T12:45:35;0.50;;;0.20;;
56005;SDS011;41888;44.696;10.522;2023-08-07T12:48:01;1.08;;;0.17;;
56005;SDS011;41888;44.696;10.522;2023-08-07T12:50:28;0.30;;;0.10;;
56005;SDS011;41888;44.696;10.522;2023-08-07T12:52:54;0.68;;;0.30;;
56005;SDS011;41888;44.696;10.522;2023-08-07T12:55:21;0.80;;;0.35;;
56005;SDS011;41888;44.696;10.522;2023-08-07T12:57:47;0.20;;;0.10;;
56005;SDS011;41888;44.696;10.522;2023-08-07T13:00:14;0.52;;;0.20;;
56005;SDS011;41888;44.696;10.522;2023-08-07T13:02:42;0.80;;;0.30;;
56005;SDS011;41888;44.696;10.522;2023-08-07T13:05:13;0.43;;;0.20;;
56005;SDS011;41888;44.696;10.522;2023-08-07T13:07:40;1.00;;;0.28;;
56005;SDS011;41888;44.696;10.522;2023-08-07T13:10:07;2.85;;;0.30;;
56005;SDS011;41888;44.696;10.522;2023-08-07T13:12:37;0.50;;;0.20;;
56005;SDS011;41888;44.696;10.522;2023-08-07T13:15:06;0.73;;;0.20;;
56005;SDS011;41888;44.696;10.522;2023-08-07T13:17:34;2.00;;;1.15;;
56005;SDS011;41888;44.696;10.522;2023-08-07T13:20:00;2.15;;;0.45;;
56005;SDS011;41888;44.696;10.522;2023-08-07T13:22:32;2.70;;;0.30;;
56005;SDS011;41888;44.696;10.522;2023-08-07T13:24:59;0.38;;;0.13;;
56005;SDS011;41888;44.696;10.522;2023-08-07T13:27:26;1.38;;;0.10;;
56005;SDS011;41888;44.696;10.522;2023-08-07T13:29:52;1.55;;;0.30;;
56005;SDS011;41888;44.696;10.522;2023-08-07T13:32:18;1.52;;;0.30;;
56005;SDS011;41888;44.696;10.522;2023-08-07T13:34:45;0.30;;;0.10;;
56005;SDS011;41888;44.696;10.522;2023-08-07T13:37:11;0.45;;;0.20;;
56005;SDS011;41888;44.696;10.522;2023-08-07T13:39:38;2.08;;;0.30;;
56005;SDS011;41888;44.696;10.522;2023-08-07T13:42:04;0.22;;;0.10;;
56005;SDS011;41888;44.696;10.522;2023-08-07T13:44:31;0.93;;;0.30;;
56005;SDS011;41888;44.696;10.522;2023-08-07T13:46:57;1.25;;;0.38;;
56005;SDS011;41888;44.696;10.522;2023-08-07T13:49:23;0.45;;;0.20;;
56005;SDS011;41888;44.696;10.522;2023-08-07T13:51:49;0.50;;;0.20;;
56005;SDS011;41888;44.696;10.522;2023-08-07T13:54:16;0.85;;;0.20;;
56005;SDS011;41888;44.696;10.522;2023-08-07T13:56:42;0.93;;;0.32;;
56005;SDS011;41888;44.696;10.522;2023-08-07T13:59:11;0.95;;;0.28;;
56005;SDS011;41888;44.696;10.522;2023-08-07T14:01:38;2.45;;;0.60;;
56005;SDS011;41888;44.696;10.522;2023-08-07T14:04:04;1.02;;;0.35;;
56005;SDS011;41888;44.696;10.522;2023-08-07T14:06:31;1.08;;;0.45;;
56005;SDS011;41888;44.696;10.522;2023-08-07T14:08:57;0.50;;;0.20;;
56005;SDS011;41888;44.696;10.522;2023-08-07T14:11:23;2.22;;;0.30;;
56005;SDS011;41888;44.696;10.522;2023-08-07T14:13:55;1.23;;;0.60;;
56005;SDS011;41888;44.696;10.522;2023-08-07T14:16:22;1.17;;;0.40;;
56005;SDS011;41888;44.696;10.522;2023-08-07T14:18:49;0.85;;;0.32;;
56005;SDS011;41888;44.696;10.522;2023-08-07T14:21:15;1.13;;;0.30;;
56005;SDS011;41888;44.696;10.522;2023-08-07T14:23:42;0.93;;;0.32;;
56005;SDS011;41888;44.696;10.522;2023-08-07T14:26:10;1.40;;;0.20;;
56005;SDS011;41888;44.696;10.522;2023-08-07T14:28:37;0.47;;;0.15;;
56005;SDS011;41888;44.696;10.522;2023-08-07T14:31:06;0.63;;;0.30;;
56005;SDS011;41888;44.696;10.522;2023-08-07T14:33:33;0.50;;;0.20;;
56005;SDS011;41888;44.696;10.522;2023-08-07T14:36:00;1.33;;;0.40;;
56005;SDS011;41888;44.696;10.522;2023-08-07T14:38:27;1.00;;;0.30;;
56005;SDS011;41888;44.696;10.522;2023-08-07T14:40:54;0.73;;;0.25;;
56005;SDS011;41888;44.696;10.522;2023-08-07T14:43:21;0.47;;;0.13;;
56005;SDS011;41888;44.696;10.522;2023-08-07T14:45:48;0.90;;;0.50;;
56005;SDS011;41888;44.696;10.522;2023-08-07T14:48:14;0.52;;;0.30;;
56005;SDS011;41888;44.696;10.522;2023-08-07T14:50:41;0.68;;;0.60;;